createdAt,value
2022-12-18T00:05:09.613Z,-6.3
2022-12-18T00:34:28.966Z,-6.3
2022-12-18T01:03:46.730Z,-6.4
2022-12-18T01:33:04.021Z,-6.4
2022-12-18T02:02:23.879Z,-6.4
2022-12-18T02:31:31.291Z,-6.5
2022-12-18T03:00:41.092Z,-6.7
2022-12-18T03:29:49.551Z,-6.7
2022-12-18T03:58:53.040Z,-6.7
2022-12-18T04:28:00.555Z,-7
2022-12-18T04:57:15.187Z,-7.3
2022-12-18T05:25:57.019Z,-7.6
2022-12-18T05:55:01.090Z,-7.6
2022-12-18T06:24:17.107Z,-7.7
2022-12-18T06:53:03.140Z,-7.5
2022-12-18T07:21:54.852Z,-7.5
2022-12-18T07:51:03.140Z,-8
2022-12-18T08:20:13.074Z,-8.3
2022-12-18T08:49:18.342Z,-8.4
2022-12-18T09:18:27.194Z,-8.1
2022-12-18T09:47:34.367Z,-7.8
2022-12-18T10:16:45.923Z,-7
2022-12-18T10:45:57.065Z,-5.9
2022-12-18T11:14:48.034Z,-4.8
2022-12-18T11:43:48.732Z,-4.6
2022-12-18T12:13:00.755Z,-4
2022-12-18T12:42:16.822Z,-4.2
2022-12-18T13:10:59.049Z,-3.9
2022-12-18T13:40:03.019Z,-3.5
2022-12-18T14:09:16.580Z,-3.8
2022-12-18T14:37:59.005Z,-4.1
2022-12-18T15:07:10.703Z,-4.6
2022-12-18T15:36:27.213Z,-5
2022-12-18T16:05:03.376Z,-5.2
2022-12-18T16:34:10.710Z,-5.3
2022-12-18T17:03:14.902Z,-5.2
2022-12-18T17:32:02.025Z,-5.2
2022-12-18T18:01:05.736Z,-5.2
2022-12-18T18:29:59.009Z,-5
2022-12-18T18:59:09.872Z,-5
2022-12-18T19:28:22.938Z,-5
2022-12-18T19:57:12.409Z,-4.9
2022-12-18T20:25:54.551Z,-4.8
2022-12-18T20:54:59.879Z,-4.7
2022-12-18T21:23:44.108Z,-4.5
2022-12-18T21:52:53.494Z,-4.5
2022-12-18T22:22:06.981Z,-4.3
2022-12-18T22:51:07.881Z,-3.8
2022-12-18T23:20:17.096Z,-3.6
2022-12-18T23:49:02.497Z,-3.3
